createdAt,value
2022-08-29T00:02:06.138Z,98040.56
2022-08-29T00:04:35.293Z,98037.28
2022-08-29T00:07:02.631Z,98049.88
2022-08-29T00:09:30.181Z,98047.22
2022-08-29T00:11:57.425Z,98050.03
2022-08-29T00:14:24.690Z,98045.88
2022-08-29T00:16:52.308Z,98044.88
2022-08-29T00:19:20.468Z,98045.22
2022-08-29T00:21:47.704Z,98052.19
2022-08-29T00:24:16.214Z,98045.88
2022-08-29T00:26:43.759Z,98050.88
2022-08-29T00:29:11.077Z,98052.19
2022-08-29T00:31:38.705Z,98047.06
2022-08-29T00:34:05.978Z,98053.53
2022-08-29T00:36:34.059Z,98048.88
2022-08-29T00:39:01.845Z,98046.06
2022-08-29T00:41:29.582Z,98047.06
2022-08-29T00:43:56.869Z,98051.69
2022-08-29T00:46:42.315Z,98046.41
2022-08-29T00:49:34.151Z,98046.75
2022-08-29T00:52:17.087Z,98047.75
2022-08-29T00:54:50.109Z,98053.34
2022-08-29T00:57:21.011Z,98048.56
2022-08-29T00:59:51.139Z,98053.19
2022-08-29T01:02:19.299Z,98053.53
2022-08-29T01:04:46.698Z,98053.03
2022-08-29T01:07:14.513Z,98060.81
2022-08-29T01:09:47.000Z,98059.16
2022-08-29T01:12:19.472Z,98058.00
2022-08-29T01:14:55.482Z,98053.53
2022-08-29T01:17:33.516Z,98054.03
2022-08-29T01:20:55.378Z,98050.03
2022-08-29T01:23:59.744Z,98055.16
2022-08-29T01:26:31.145Z,98057.50
2022-08-29T01:28:59.259Z,98050.53
2022-08-29T01:31:57.200Z,98050.03
2022-08-29T01:34:28.601Z,98050.84
2022-08-29T01:37:06.777Z,98046.53
2022-08-29T01:39:38.511Z,98049.84
2022-08-29T01:42:23.866Z,98058.78
2022-08-29T01:44:59.058Z,98058.78
2022-08-29T01:47:34.488Z,98062.94
2022-08-29T01:50:08.719Z,98068.06
2022-08-29T01:52:36.035Z,98072.19
2022-08-29T01:55:04.970Z,98069.72
2022-08-29T01:57:32.222Z,98068.72
2022-08-29T02:00:01.680Z,98079.16
2022-08-29T02:02:30.225Z,98075.03
2022-08-29T02:04:58.747Z,98073.69
2022-08-29T02:07:26.714Z,98073.69
2022-08-29T02:09:54.285Z,98082.47
2022-08-29T02:12:21.816Z,98086.13
2022-08-29T02:14:50.925Z,98078.81
2022-08-29T02:17:19.909Z,98084.28
2022-08-29T02:19:47.263Z,98077.16
2022-08-29T02:22:14.862Z,98074.50
2022-08-29T02:24:43.166Z,98078.97
2022-08-29T02:27:12.708Z,98085.44
2022-08-29T02:29:40.098Z,98082.94
2022-08-29T02:32:12.442Z,98088.25
2022-08-29T02:34:44.834Z,98089.91
2022-08-29T02:37:16.993Z,98096.19
2022-08-29T02:39:44.309Z,98094.38
2022-08-29T02:42:11.577Z,98095.19
2022-08-29T02:44:39.088Z,98085.44
2022-08-29T02:47:09.174Z,98090.41
2022-08-29T02:49:36.572Z,98088.44
2022-08-29T02:52:06.785Z,98089.25
2022-08-29T02:54:34.962Z,98091.28
2022-08-29T02:57:03.162Z,98094.88
2022-08-29T02:59:30.703Z,98101.53
2022-08-29T03:01:58.163Z,98100.19
2022-08-29T03:04:25.451Z,98101.19
2022-08-29T03:06:53.611Z,98091.94
2022-08-29T03:09:20.875Z,98094.88
2022-08-29T03:11:48.180Z,98103.66
2022-08-29T03:14:15.929Z,98097.53
2022-08-29T03:16:43.316Z,98095.19
2022-08-29T03:19:12.218Z,98102.81
2022-08-29T03:21:39.785Z,98098.66
2022-08-29T03:24:07.114Z,98114.00
2022-08-29T03:26:34.339Z,98103.13
2022-08-29T03:29:01.909Z,98105.06
2022-08-29T03:31:29.473Z,98110.06
2022-08-29T03:33:57.016Z,98113.72
2022-08-29T03:36:27.082Z,98111.22
2022-08-29T03:38:54.577Z,98122.94
2022-08-29T03:41:29.218Z,98124.59
2022-08-29T03:43:59.039Z,98123.41
2022-08-29T03:46:27.881Z,98129.41
2022-08-29T03:48:55.423Z,98133.88
2022-08-29T03:51:23.064Z,98127.22
2022-08-29T03:53:56.753Z,98128.88
2022-08-29T03:56:25.099Z,98117.13
2022-08-29T03:58:53.405Z,98124.25
2022-08-29T04:01:24.805Z,98127.88
2022-08-29T04:03:53.325Z,98120.94
2022-08-29T04:06:22.627Z,98127.22
2022-08-29T04:08:52.056Z,98140.28
2022-08-29T04:11:22.043Z,98143.94
2022-08-29T04:13:49.415Z,98151.56
2022-08-29T04:16:30.501Z,98152.41
2022-08-29T04:18:59.785Z,98151.41
2022-08-29T04:21:27.641Z,98158.34
2022-08-29T04:23:55.284Z,98157.00
2022-08-29T04:26:38.716Z,98158.38
2022-08-29T04:29:10.022Z,98168.97
2022-08-29T04:31:39.158Z,98160.03
2022-08-29T04:34:09.758Z,98172.28
2022-08-29T04:36:41.874Z,98174.16
2022-08-29T04:39:11.373Z,98175.00
2022-08-29T04:41:41.509Z,98181.31
2022-08-29T04:44:11.216Z,98181.66
2022-08-29T04:46:40.030Z,98187.63
2022-08-29T04:49:07.799Z,98191.94
2022-08-29T04:51:35.845Z,98192.25
2022-08-29T04:54:05.143Z,98185.97
2022-08-29T04:56:32.572Z,98197.56
2022-08-29T04:59:02.052Z,98201.53
2022-08-29T05:01:29.491Z,98205.88
2022-08-29T05:03:58.077Z,98202.22
2022-08-29T05:06:27.503Z,98209.66
2022-08-29T05:08:59.573Z,98210.34
2022-08-29T05:11:31.465Z,98221.25
2022-08-29T05:14:01.079Z,98214.84
2022-08-29T05:16:30.686Z,98213.00
2022-08-29T05:18:59.866Z,98223.78
2022-08-29T05:21:35.169Z,98231.56
2022-08-29T05:24:07.771Z,98226.31
2022-08-29T05:26:41.347Z,98230.78
2022-08-29T05:29:13.646Z,98235.09
2022-08-29T05:31:44.622Z,98236.78
2022-08-29T05:34:34.683Z,98236.13
2022-08-29T05:37:06.204Z,98243.28
2022-08-29T05:39:36.198Z,98257.22
2022-08-29T05:42:04.995Z,98246.13
2022-08-29T05:44:35.485Z,98253.63
2022-08-29T05:47:13.300Z,98253.44
2022-08-29T05:49:43.626Z,98253.31
2022-08-29T05:52:14.104Z,98245.00
2022-08-29T05:54:44.152Z,98248.78
2022-08-29T05:57:18.996Z,98248.78
2022-08-29T05:59:52.737Z,98249.78
2022-08-29T06:02:22.876Z,98259.44
2022-08-29T06:04:50.354Z,98253.81
2022-08-29T06:07:18.689Z,98262.81
2022-08-29T06:09:46.437Z,98269.94
2022-08-29T06:12:15.767Z,98272.38
2022-08-29T06:14:50.678Z,98272.25
2022-08-29T06:17:19.077Z,98280.13
2022-08-29T06:19:50.688Z,98283.00
2022-08-29T06:22:20.024Z,98288.16
2022-08-29T06:24:47.501Z,98292.00
2022-08-29T06:27:17.375Z,98288.88
2022-08-29T06:29:44.855Z,98300.44
2022-08-29T06:32:14.167Z,98296.94
2022-08-29T06:34:41.507Z,98293.84
2022-08-29T06:37:08.860Z,98303.41
2022-08-29T06:39:36.312Z,98313.25
2022-08-29T06:42:05.044Z,98314.38
2022-08-29T06:44:35.577Z,98304.13
2022-08-29T06:47:04.427Z,98309.06
2022-08-29T06:49:33.523Z,98314.63
2022-08-29T06:52:00.814Z,98333.75
2022-08-29T06:54:30.082Z,98321.13
2022-08-29T06:56:58.613Z,98323.72
2022-08-29T06:59:33.677Z,98323.03
2022-08-29T07:02:01.126Z,98327.66
2022-08-29T07:04:29.259Z,98333.69
2022-08-29T07:06:56.539Z,98333.34
2022-08-29T07:09:24.062Z,98330.63
2022-08-29T07:11:51.384Z,98330.44
2022-08-29T07:14:19.100Z,98336.44
2022-08-29T07:16:46.611Z,98336.63
2022-08-29T07:19:17.668Z,98348.38
2022-08-29T07:21:45.385Z,98340.72
2022-08-29T07:24:14.623Z,98347.25
2022-08-29T07:26:44.339Z,98341.47
2022-08-29T07:29:17.337Z,98350.84
2022-08-29T07:31:45.172Z,98361.22
2022-08-29T07:34:12.477Z,98361.41
2022-08-29T07:36:40.248Z,98364.38
2022-08-29T07:39:14.335Z,98362.09
2022-08-29T07:41:44.041Z,98366.63
2022-08-29T07:44:13.634Z,98370.13
2022-08-29T07:46:41.859Z,98380.56
2022-08-29T07:49:09.837Z,98381.63
2022-08-29T07:51:37.505Z,98381.22
2022-08-29T07:54:09.551Z,98380.00
2022-08-29T07:56:42.120Z,98377.50
2022-08-29T07:59:10.039Z,98369.94
2022-08-29T08:01:38.503Z,98385.81
2022-08-29T08:04:07.026Z,98386.56
2022-08-29T08:06:36.865Z,98395.03
2022-08-29T08:09:06.304Z,98396.31
2022-08-29T08:11:34.407Z,98394.41
2022-08-29T08:14:02.647Z,98394.28
2022-08-29T08:16:31.701Z,98395.81
2022-08-29T08:18:59.765Z,98389.91
2022-08-29T08:21:27.787Z,98397.97
2022-08-29T08:23:55.404Z,98383.81
2022-08-29T08:26:23.697Z,98390.53
2022-08-29T08:28:52.103Z,98384.41
2022-08-29T08:31:21.747Z,98392.03
2022-08-29T08:33:49.279Z,98382.31
2022-08-29T08:36:30.977Z,98376.38
2022-08-29T08:39:00.359Z,98380.19
2022-08-29T08:41:34.593Z,98385.94
2022-08-29T08:44:07.284Z,98381.75
2022-08-29T08:46:47.994Z,98380.94
2022-08-29T08:49:50.291Z,98398.50
2022-08-29T08:52:29.193Z,98392.19
2022-08-29T08:55:05.079Z,98394.41
2022-08-29T08:57:54.742Z,98395.78
2022-08-29T09:00:21.963Z,98406.03
2022-08-29T09:03:12.633Z,98405.91
2022-08-29T09:06:07.186Z,98404.34
2022-08-29T09:09:14.376Z,98399.06
2022-08-29T09:12:00.144Z,98404.09
2022-08-29T09:15:19.318Z,98409.66
2022-08-29T09:18:01.011Z,98409.41
2022-08-29T09:20:34.198Z,98408.75
2022-08-29T09:23:06.069Z,98410.34
2022-08-29T09:25:36.424Z,98404.47
2022-08-29T09:28:09.233Z,98406.47
2022-08-29T09:30:39.416Z,98405.19
2022-08-29T09:33:17.097Z,98410.16
2022-08-29T09:35:52.826Z,98399.09
2022-08-29T09:38:25.801Z,98401.13
2022-08-29T09:41:07.822Z,98383.56
2022-08-29T09:43:43.888Z,98381.34
2022-08-29T09:46:13.901Z,98392.88
2022-08-29T09:48:45.865Z,98389.84
2022-08-29T09:51:38.074Z,98382.66
2022-08-29T09:54:22.789Z,98377.34
2022-08-29T09:57:03.269Z,98372.41
2022-08-29T09:59:35.948Z,98383.38
2022-08-29T10:02:24.719Z,98394.53
2022-08-29T10:05:01.480Z,98374.34
2022-08-29T10:07:45.760Z,98353.78
2022-08-29T10:10:24.856Z,98348.84
2022-08-29T10:13:18.681Z,98341.97
2022-08-29T10:16:01.619Z,98342.16
2022-08-29T10:18:55.707Z,98362.56
2022-08-29T10:21:59.614Z,98384.47
2022-08-29T10:25:06.364Z,98376.59
2022-08-29T10:27:57.128Z,98348.22
2022-08-29T10:30:32.510Z,98339.72
2022-08-29T10:33:17.676Z,98326.81
2022-08-29T10:35:59.985Z,98311.16
2022-08-29T10:39:25.179Z,98318.13
2022-08-29T10:42:16.602Z,98329.53
2022-08-29T10:45:09.810Z,98318.06
2022-08-29T10:47:47.006Z,98318.19
2022-08-29T10:50:43.703Z,98334.88
2022-08-29T10:53:29.555Z,98345.03
2022-08-29T10:56:10.625Z,98367.34
2022-08-29T10:58:56.992Z,98365.34
2022-08-29T11:01:35.762Z,98333.72
2022-08-29T11:04:17.903Z,98327.56
2022-08-29T11:07:16.264Z,98317.34
2022-08-29T11:10:03.332Z,98303.94
2022-08-29T11:13:10.625Z,98302.09
2022-08-29T11:16:15.214Z,98313.00
2022-08-29T11:19:02.888Z,98334.91
2022-08-29T11:21:44.541Z,98335.88
2022-08-29T11:24:15.988Z,98323.63
2022-08-29T11:27:11.272Z,98328.28
2022-08-29T11:30:08.037Z,98297.91
2022-08-29T11:33:15.097Z,98302.38
2022-08-29T11:36:07.164Z,98324.13
2022-08-29T11:39:05.133Z,98321.31
2022-08-29T11:41:43.198Z,98316.13
2022-08-29T11:44:33.864Z,98321.63
2022-08-29T11:47:01.667Z,98320.06
2022-08-29T11:49:54.715Z,98313.94
2022-08-29T11:52:26.886Z,98318.16
2022-08-29T11:55:27.064Z,98319.78
2022-08-29T11:58:03.454Z,98310.47
2022-08-29T12:00:53.878Z,98285.53
2022-08-29T12:03:33.240Z,98303.13
2022-08-29T12:06:26.678Z,98298.41
2022-08-29T12:09:14.865Z,98275.00
2022-08-29T12:12:22.013Z,98288.84
2022-08-29T12:14:53.241Z,98288.28
2022-08-29T12:17:24.673Z,98277.19
2022-08-29T12:19:56.513Z,98282.41
2022-08-29T12:22:51.927Z,98276.09
2022-08-29T12:25:28.414Z,98271.47
2022-08-29T12:28:57.893Z,98270.97
2022-08-29T12:32:18.260Z,98283.84
2022-08-29T12:35:17.132Z,98281.34
2022-08-29T12:38:26.358Z,98273.63
2022-08-29T12:41:33.788Z,98273.41
2022-08-29T12:44:10.604Z,98254.31
2022-08-29T12:46:48.399Z,98255.72
2022-08-29T12:49:26.999Z,98255.22
2022-08-29T12:52:07.514Z,98239.28
2022-08-29T12:54:42.084Z,98243.53
2022-08-29T12:57:35.854Z,98252.06
2022-08-29T13:00:13.616Z,98246.13
2022-08-29T13:02:41.167Z,98246.19
2022-08-29T13:05:28.768Z,98251.00
2022-08-29T13:08:09.648Z,98244.00
2022-08-29T13:10:54.101Z,98243.19
2022-08-29T13:13:25.039Z,98239.03
2022-08-29T13:16:01.520Z,98244.66
2022-08-29T13:18:33.761Z,98243.69
2022-08-29T13:21:22.248Z,98235.44
2022-08-29T13:24:19.829Z,98234.94
2022-08-29T13:27:05.934Z,98227.88
2022-08-29T13:29:43.460Z,98226.94
2022-08-29T13:32:17.708Z,98215.38
2022-08-29T13:35:15.290Z,98222.28
2022-08-29T13:38:05.835Z,98231.94
2022-08-29T13:40:43.214Z,98221.38
2022-08-29T13:43:46.110Z,98227.06
2022-08-29T13:46:15.016Z,98220.25
2022-08-29T13:48:44.677Z,98223.91
2022-08-29T13:51:12.486Z,98210.31
2022-08-29T13:53:40.142Z,98213.22
2022-08-29T13:56:32.743Z,98211.59
2022-08-29T13:59:01.398Z,98206.03
2022-08-29T14:01:30.658Z,98209.19
2022-08-29T14:04:03.581Z,98211.81
2022-08-29T14:06:38.680Z,98212.47
2022-08-29T14:09:06.651Z,98208.22
2022-08-29T14:11:33.896Z,98208.19
2022-08-29T14:14:01.471Z,98215.00
2022-08-29T14:16:28.775Z,98214.59
2022-08-29T14:18:55.996Z,98214.44
2022-08-29T14:21:24.793Z,98215.66
2022-08-29T14:23:53.884Z,98218.88
2022-08-29T14:26:21.994Z,98222.91
2022-08-29T14:28:49.469Z,98212.34
2022-08-29T14:31:16.782Z,98214.63
2022-08-29T14:33:44.326Z,98208.97
2022-08-29T14:36:12.678Z,98210.72
2022-08-29T14:38:40.012Z,98213.19
2022-08-29T14:41:07.393Z,98219.53
2022-08-29T14:43:39.600Z,98222.38
2022-08-29T14:46:07.557Z,98218.69
2022-08-29T14:48:35.866Z,98220.72
2022-08-29T14:51:03.702Z,98217.69
2022-08-29T14:53:33.990Z,98221.53
2022-08-29T14:56:06.226Z,98207.44
2022-08-29T14:58:33.462Z,98220.91
2022-08-29T15:01:00.854Z,98220.34
2022-08-29T15:03:28.344Z,98222.53
2022-08-29T15:05:55.686Z,98228.41
2022-08-29T15:08:23.030Z,98222.75
2022-08-29T15:10:50.792Z,98219.16
2022-08-29T15:13:17.972Z,98230.31
2022-08-29T15:15:45.951Z,98233.59
2022-08-29T15:18:30.632Z,98227.69
2022-08-29T15:21:02.274Z,98224.03
2022-08-29T15:23:29.781Z,98225.28
2022-08-29T15:25:57.054Z,98218.59
2022-08-29T15:28:24.488Z,98208.50
2022-08-29T15:30:52.202Z,98212.22
2022-08-29T15:33:19.516Z,98213.34
2022-08-29T15:35:46.767Z,98217.19
2022-08-29T15:38:14.501Z,98226.38
2022-08-29T15:40:42.543Z,98229.06
2022-08-29T15:43:10.598Z,98223.00
2022-08-29T15:45:38.987Z,98220.16
2022-08-29T15:48:11.646Z,98216.22
2022-08-29T15:50:39.292Z,98211.03
2022-08-29T15:53:06.820Z,98212.97
2022-08-29T15:55:34.427Z,98220.34
2022-08-29T15:58:01.944Z,98219.25
2022-08-29T16:00:30.111Z,98224.56
2022-08-29T16:03:00.561Z,98218.66
2022-08-29T16:05:29.227Z,98221.88
2022-08-29T16:07:56.671Z,98221.88
2022-08-29T16:10:24.106Z,98221.97
2022-08-29T16:12:51.606Z,98218.09
2022-08-29T16:15:18.971Z,98220.78
2022-08-29T16:17:46.326Z,98222.06
2022-08-29T16:20:13.874Z,98222.06
2022-08-29T16:22:42.863Z,98214.66
2022-08-29T16:25:12.115Z,98221.91
2022-08-29T16:27:40.176Z,98213.88
2022-08-29T16:30:10.327Z,98220.47
2022-08-29T16:32:38.543Z,98220.06
2022-08-29T16:35:07.063Z,98222.56
2022-08-29T16:37:34.705Z,98212.44
2022-08-29T16:40:07.271Z,98215.50
2022-08-29T16:42:37.590Z,98215.72
2022-08-29T16:45:07.640Z,98213.44
2022-08-29T16:47:35.767Z,98215.91
2022-08-29T16:50:05.949Z,98217.53
2022-08-29T16:52:33.505Z,98217.09
2022-08-29T16:55:00.905Z,98216.44
2022-08-29T16:57:28.479Z,98217.22
2022-08-29T16:59:55.835Z,98217.38
2022-08-29T17:02:23.659Z,98211.00
2022-08-29T17:04:51.469Z,98211.59
2022-08-29T17:07:19.950Z,98218.97
2022-08-29T17:09:47.431Z,98212.94
2022-08-29T17:12:14.742Z,98215.09
2022-08-29T17:14:43.456Z,98222.66
2022-08-29T17:17:11.027Z,98221.28
2022-08-29T17:19:38.974Z,98225.91
2022-08-29T17:22:06.425Z,98229.50
2022-08-29T17:24:33.923Z,98239.03
2022-08-29T17:27:01.900Z,98237.91
2022-08-29T17:29:29.296Z,98233.25
2022-08-29T17:31:57.438Z,98240.56
2022-08-29T17:34:24.734Z,98234.06
2022-08-29T17:36:52.118Z,98248.56
2022-08-29T17:39:20.074Z,98248.63
2022-08-29T17:41:52.649Z,98247.91
2022-08-29T17:44:20.756Z,98249.03
2022-08-29T17:46:48.599Z,98252.38
2022-08-29T17:49:16.372Z,98248.31
2022-08-29T17:51:44.739Z,98248.91
2022-08-29T17:54:24.257Z,98249.19
2022-08-29T17:56:56.460Z,98253.78
2022-08-29T17:59:28.324Z,98257.16
2022-08-29T18:01:57.183Z,98257.22
2022-08-29T18:04:26.914Z,98258.69
2022-08-29T18:06:56.157Z,98269.78
2022-08-29T18:09:25.025Z,98272.03
2022-08-29T18:11:55.116Z,98273.44
2022-08-29T18:14:24.383Z,98277.34
2022-08-29T18:16:53.648Z,98277.41
2022-08-29T18:19:22.325Z,98272.16
2022-08-29T18:21:52.010Z,98278.13
2022-08-29T18:24:20.478Z,98283.69
2022-08-29T18:26:49.194Z,98281.59
2022-08-29T18:29:17.040Z,98284.28
2022-08-29T18:31:44.974Z,98286.81
2022-08-29T18:34:14.514Z,98290.34
2022-08-29T18:36:44.928Z,98296.38
2022-08-29T18:39:14.757Z,98294.41
2022-08-29T18:41:42.845Z,98302.09
2022-08-29T18:44:10.334Z,98308.44
2022-08-29T18:46:41.125Z,98310.81
2022-08-29T18:49:08.747Z,98316.94
2022-08-29T18:51:39.422Z,98311.47
2022-08-29T18:54:09.119Z,98322.63
2022-08-29T18:56:38.478Z,98324.31
2022-08-29T18:59:05.794Z,98319.19
2022-08-29T19:01:33.647Z,98318.03
2022-08-29T19:04:02.725Z,98320.03
2022-08-29T19:06:31.597Z,98323.19
2022-08-29T19:09:00.025Z,98333.50
2022-08-29T19:11:29.318Z,98338.50
2022-08-29T19:13:56.635Z,98336.84
2022-08-29T19:16:24.567Z,98344.81
2022-08-29T19:18:52.302Z,98342.31
2022-08-29T19:21:19.872Z,98344.75
2022-08-29T19:23:52.883Z,98342.78
2022-08-29T19:26:31.118Z,98342.63
2022-08-29T19:29:04.937Z,98338.47
2022-08-29T19:31:32.670Z,98349.41
2022-08-29T19:34:00.836Z,98349.75
2022-08-29T19:36:28.240Z,98353.88
2022-08-29T19:38:55.888Z,98354.84
2022-08-29T19:41:23.251Z,98353.03
2022-08-29T19:43:53.110Z,98360.16
2022-08-29T19:46:23.960Z,98360.94
2022-08-29T19:48:52.219Z,98356.13
2022-08-29T19:51:24.588Z,98365.22
2022-08-29T19:53:57.345Z,98365.69
2022-08-29T19:56:29.279Z,98359.06
2022-08-29T19:58:58.107Z,98368.44
2022-08-29T20:01:31.952Z,98369.94
2022-08-29T20:03:59.514Z,98371.41
2022-08-29T20:06:27.080Z,98370.88
2022-08-29T20:08:54.735Z,98369.84
2022-08-29T20:11:28.020Z,98377.16
2022-08-29T20:13:59.280Z,98376.63
2022-08-29T20:16:32.331Z,98376.09
2022-08-29T20:19:00.242Z,98373.91
2022-08-29T20:21:28.737Z,98382.03
2022-08-29T20:23:58.277Z,98381.69
2022-08-29T20:26:31.773Z,98384.13
2022-08-29T20:29:02.107Z,98385.72
2022-08-29T20:31:29.789Z,98381.41
2022-08-29T20:33:57.466Z,98387.31
2022-08-29T20:36:44.614Z,98386.66
2022-08-29T20:39:16.825Z,98388.41
2022-08-29T20:41:57.782Z,98387.66
2022-08-29T20:44:33.729Z,98382.34
2022-08-29T20:47:02.046Z,98384.34
2022-08-29T20:49:29.676Z,98391.44
2022-08-29T20:51:57.067Z,98391.72
2022-08-29T20:54:25.290Z,98388.25
2022-08-29T20:56:53.714Z,98383.13
2022-08-29T20:59:26.147Z,98384.28
2022-08-29T21:01:55.737Z,98386.53
2022-08-29T21:04:43.310Z,98384.34
2022-08-29T21:07:14.184Z,98389.56
2022-08-29T21:09:45.228Z,98391.72
2022-08-29T21:12:15.375Z,98389.50
2022-08-29T21:14:43.857Z,98390.81
2022-08-29T21:17:13.677Z,98393.06
2022-08-29T21:19:41.870Z,98393.22
2022-08-29T21:22:12.937Z,98395.19
2022-08-29T21:24:41.351Z,98397.13
2022-08-29T21:27:09.385Z,98401.59
2022-08-29T21:29:36.877Z,98396.75
2022-08-29T21:32:04.492Z,98391.63
2022-08-29T21:34:32.002Z,98403.31
2022-08-29T21:36:59.212Z,98394.69
2022-08-29T21:39:32.649Z,98393.50
2022-08-29T21:42:02.549Z,98400.75
2022-08-29T21:44:30.805Z,98400.06
2022-08-29T21:46:58.401Z,98400.53
2022-08-29T21:49:27.149Z,98394.00
2022-08-29T21:51:54.597Z,98399.13
2022-08-29T21:54:22.364Z,98401.94
2022-08-29T21:56:50.390Z,98397.78
2022-08-29T21:59:20.144Z,98405.84
2022-08-29T22:01:48.990Z,98401.53
2022-08-29T22:04:28.202Z,98406.16
2022-08-29T22:06:58.488Z,98407.41
2022-08-29T22:09:28.497Z,98402.38
2022-08-29T22:11:56.347Z,98407.69
2022-08-29T22:14:43.862Z,98406.16
2022-08-29T22:17:11.593Z,98404.66
2022-08-29T22:19:39.679Z,98402.16
2022-08-29T22:22:08.170Z,98402.59
2022-08-29T22:24:37.517Z,98400.09
2022-08-29T22:27:04.940Z,98400.41
2022-08-29T22:29:33.459Z,98394.28
2022-08-29T22:32:00.873Z,98399.56
2022-08-29T22:34:28.314Z,98396.06
2022-08-29T22:36:56.364Z,98403.47
2022-08-29T22:39:23.849Z,98407.25
2022-08-29T22:41:51.353Z,98402.22
2022-08-29T22:47:06.939Z,98401.03
2022-08-29T22:49:34.209Z,98413.41
2022-08-29T22:52:02.155Z,98400.88
2022-08-29T22:54:35.758Z,98406.16
2022-08-29T22:57:21.975Z,98398.38
2022-08-29T22:59:49.413Z,98397.09
2022-08-29T23:02:20.221Z,98396.56
2022-08-29T23:04:50.888Z,98396.03
2022-08-29T23:07:19.577Z,98398.81
2022-08-29T23:09:47.170Z,98394.13
2022-08-29T23:12:15.172Z,98399.53
2022-08-29T23:14:46.662Z,98394.38
2022-08-29T23:17:16.218Z,98395.38
2022-08-29T23:19:45.187Z,98400.13
2022-08-29T23:22:14.459Z,98395.66
2022-08-29T23:24:58.374Z,98400.13
2022-08-29T23:27:29.933Z,98391.50
2022-08-29T23:29:58.883Z,98394.41
2022-08-29T23:32:28.217Z,98391.78
2022-08-29T23:34:56.233Z,98396.78
2022-08-29T23:37:24.588Z,98389.13
2022-08-29T23:39:51.835Z,98396.53
2022-08-29T23:42:19.413Z,98383.31
2022-08-29T23:44:48.275Z,98392.75
2022-08-29T23:47:16.914Z,98386.78
2022-08-29T23:49:44.718Z,98389.72
2022-08-29T23:52:12.119Z,98383.16
2022-08-29T23:54:39.418Z,98384.97
2022-08-29T23:57:06.859Z,98382.75
2022-08-29T23:59:53.403Z,98394.03
